createdAt,value
2022-12-31T00:01:37.538Z,9.68
2022-12-31T00:06:39.045Z,9.58
2022-12-31T00:11:40.629Z,9.38
2022-12-31T00:16:42.753Z,9.36
2022-12-31T00:21:44.318Z,9.41
2022-12-31T00:26:45.892Z,9.20
2022-12-31T00:31:47.404Z,9.09
2022-12-31T00:36:48.893Z,9.23
2022-12-31T00:41:50.491Z,9.39
2022-12-31T00:46:52.040Z,9.26
2022-12-31T00:51:53.625Z,9.00
2022-12-31T00:56:55.125Z,9.04
2022-12-31T01:01:56.806Z,9.11
2022-12-31T01:06:58.430Z,9.32
2022-12-31T01:12:00.163Z,9.16
2022-12-31T01:17:01.700Z,9.19
2022-12-31T01:22:03.213Z,9.23
2022-12-31T01:27:04.757Z,8.92
2022-12-31T01:32:06.307Z,8.71
2022-12-31T01:37:07.813Z,8.77
2022-12-31T01:42:11.267Z,8.67
2022-12-31T01:47:15.749Z,8.64
2022-12-31T01:52:20.247Z,8.68
2022-12-31T01:57:22.411Z,8.63
2022-12-31T02:02:24.295Z,8.62
2022-12-31T02:07:26.023Z,8.36
2022-12-31T02:12:27.624Z,8.48
2022-12-31T02:17:41.836Z,8.74
2022-12-31T02:23:10.867Z,8.41
2022-12-31T02:28:15.524Z,8.35
2022-12-31T02:33:22.100Z,8.37
2022-12-31T02:38:26.413Z,9.04
2022-12-31T02:43:28.348Z,10.18
2022-12-31T02:48:38.625Z,11.28
2022-12-31T02:53:43.286Z,11.63
2022-12-31T02:59:35.686Z,11.49
2022-12-31T03:04:37.298Z,11.76
2022-12-31T03:09:39.173Z,12.04
2022-12-31T03:14:40.772Z,12.12
2022-12-31T03:20:01.087Z,12.27
2022-12-31T03:25:27.337Z,12.09
2022-12-31T03:30:29.512Z,12.37
2022-12-31T03:35:33.129Z,12.08
2022-12-31T03:40:38.379Z,12.07
2022-12-31T03:45:39.909Z,12.30
2022-12-31T03:50:41.480Z,12.32
2022-12-31T03:55:43.036Z,12.03
2022-12-31T04:00:44.536Z,12.04
2022-12-31T04:05:51.870Z,12.12
2022-12-31T04:10:53.377Z,12.16
2022-12-31T04:15:54.851Z,12.02
2022-12-31T04:21:01.028Z,12.15
2022-12-31T04:26:02.555Z,12.04
2022-12-31T04:31:04.279Z,12.28
2022-12-31T04:36:06.961Z,12.52
2022-12-31T04:41:17.823Z,12.48
2022-12-31T04:46:21.030Z,12.65
2022-12-31T04:51:23.002Z,12.63
2022-12-31T04:56:24.713Z,13.03
2022-12-31T05:01:26.450Z,13.15
2022-12-31T05:06:28.107Z,13.09
2022-12-31T05:11:29.616Z,13.28
2022-12-31T05:16:31.170Z,13.28
2022-12-31T05:21:32.971Z,13.32
2022-12-31T05:26:34.822Z,13.36
2022-12-31T05:31:36.470Z,13.56
2022-12-31T05:36:37.959Z,13.48
2022-12-31T05:41:39.510Z,13.32
2022-12-31T05:46:41.002Z,13.44
2022-12-31T05:51:42.621Z,13.30
2022-12-31T05:56:44.194Z,13.55
2022-12-31T06:01:45.754Z,13.65
2022-12-31T06:06:47.323Z,13.56
2022-12-31T06:11:48.867Z,13.59
2022-12-31T06:16:50.440Z,13.68
2022-12-31T06:21:52.114Z,13.65
2022-12-31T06:26:53.731Z,13.60
2022-12-31T06:31:55.457Z,13.44
2022-12-31T06:36:56.926Z,13.58
2022-12-31T06:41:58.463Z,13.65
2022-12-31T06:46:59.939Z,13.63
2022-12-31T06:52:01.584Z,13.66
2022-12-31T06:57:03.351Z,13.41
2022-12-31T07:02:12.020Z,13.49
2022-12-31T07:07:29.027Z,13.73
2022-12-31T07:12:30.543Z,13.75
2022-12-31T07:17:36.699Z,13.54
2022-12-31T07:22:38.391Z,13.77
2022-12-31T07:27:58.424Z,13.67
2022-12-31T07:33:25.256Z,13.83
2022-12-31T07:38:36.704Z,14.09
2022-12-31T07:43:50.660Z,14.21
2022-12-31T07:48:52.422Z,14.64
2022-12-31T07:53:54.110Z,14.79
2022-12-31T07:59:02.432Z,14.98
2022-12-31T08:04:18.193Z,15.09
2022-12-31T08:09:19.718Z,15.27
2022-12-31T08:14:21.313Z,15.51
2022-12-31T08:19:28.398Z,15.71
2022-12-31T08:24:35.766Z,15.76
2022-12-31T08:29:45.960Z,15.86
2022-12-31T08:34:53.907Z,16.01
2022-12-31T08:39:58.546Z,16.07
2022-12-31T08:45:08.973Z,16.17
2022-12-31T08:50:15.306Z,16.14
2022-12-31T08:55:18.773Z,16.21
2022-12-31T09:00:21.257Z,16.28
2022-12-31T09:05:23.374Z,16.45
2022-12-31T09:10:30.136Z,16.43
2022-12-31T09:15:43.842Z,16.53
2022-12-31T09:20:45.500Z,16.71
2022-12-31T09:25:52.156Z,16.57
2022-12-31T09:30:53.708Z,16.66
2022-12-31T09:35:58.346Z,16.82
2022-12-31T09:40:59.947Z,16.71
2022-12-31T09:46:20.270Z,16.82
2022-12-31T09:51:29.758Z,17.01
2022-12-31T09:56:54.095Z,16.95
2022-12-31T10:02:15.275Z,16.83
2022-12-31T10:07:16.863Z,16.96
2022-12-31T10:12:36.984Z,17.09
2022-12-31T10:17:47.738Z,17.15
2022-12-31T10:23:16.118Z,17.06
2022-12-31T10:28:36.515Z,17.17
2022-12-31T10:33:42.300Z,17.22
2022-12-31T10:38:53.318Z,17.40
2022-12-31T10:44:13.773Z,17.37
2022-12-31T10:49:20.965Z,17.28
2022-12-31T10:54:31.685Z,17.20
2022-12-31T10:59:45.527Z,17.31
2022-12-31T11:04:53.130Z,17.26
2022-12-31T11:10:13.503Z,17.18
2022-12-31T11:15:27.384Z,17.33
2022-12-31T11:20:47.334Z,17.27
2022-12-31T11:26:13.363Z,17.36
2022-12-31T11:31:32.666Z,17.42
2022-12-31T11:36:43.386Z,17.49
2022-12-31T11:41:53.640Z,17.52
2022-12-31T11:46:58.219Z,17.67
2022-12-31T11:52:02.760Z,17.76
2022-12-31T11:57:16.669Z,17.82
2022-12-31T12:02:25.058Z,17.77
2022-12-31T12:07:27.152Z,17.73
2022-12-31T12:12:41.810Z,17.82
2022-12-31T12:17:43.441Z,17.97
2022-12-31T12:22:49.583Z,18.32
2022-12-31T12:27:51.308Z,18.29
2022-12-31T12:32:54.032Z,18.23
2022-12-31T12:38:00.287Z,18.22
2022-12-31T12:43:02.503Z,18.09
2022-12-31T12:48:08.972Z,18.03
2022-12-31T12:53:28.854Z,18.18
2022-12-31T12:58:31.841Z,17.96
2022-12-31T13:04:32.488Z,17.97
2022-12-31T13:09:30.382Z,17.95
2022-12-31T13:14:44.900Z,17.94
2022-12-31T13:19:53.279Z,17.91
2022-12-31T13:25:06.505Z,17.96
2022-12-31T13:30:19.422Z,17.84
2022-12-31T13:35:28.200Z,17.77
2022-12-31T13:40:33.281Z,17.91
2022-12-31T13:45:46.918Z,17.68
2022-12-31T13:50:55.009Z,17.80
2022-12-31T13:55:58.748Z,17.76
2022-12-31T14:01:05.264Z,17.57
2022-12-31T14:06:11.375Z,17.53
2022-12-31T14:11:17.186Z,17.52
2022-12-31T14:16:21.843Z,17.38
2022-12-31T14:21:27.051Z,17.47
2022-12-31T14:26:31.245Z,17.37
2022-12-31T14:31:39.023Z,17.32
2022-12-31T14:36:46.418Z,17.25
2022-12-31T14:42:00.943Z,17.28
2022-12-31T14:47:12.602Z,17.10
2022-12-31T14:52:20.447Z,17.03
2022-12-31T14:57:24.467Z,17.12
2022-12-31T15:02:27.934Z,17.15
2022-12-31T15:07:34.788Z,17.22
2022-12-31T15:12:46.632Z,17.11
2022-12-31T15:17:48.072Z,17.21
2022-12-31T15:22:50.921Z,17.20
2022-12-31T15:27:52.857Z,17.19
2022-12-31T15:32:56.657Z,17.29
2022-12-31T15:38:10.337Z,17.15
2022-12-31T15:43:28.011Z,16.83
2022-12-31T15:48:29.517Z,16.85
2022-12-31T15:53:42.791Z,17.04
2022-12-31T15:58:45.995Z,17.00
2022-12-31T16:04:10.656Z,16.97
2022-12-31T16:09:18.379Z,16.84
2022-12-31T16:14:22.843Z,16.96
2022-12-31T16:19:34.772Z,16.86
2022-12-31T16:24:48.877Z,16.93
2022-12-31T16:30:00.442Z,16.89
2022-12-31T16:35:02.227Z,16.99
2022-12-31T16:40:08.414Z,16.68
2022-12-31T16:45:18.020Z,16.52
2022-12-31T16:50:23.504Z,16.32
2022-12-31T16:55:26.480Z,16.36
2022-12-31T17:00:28.409Z,16.28
2022-12-31T17:05:30.045Z,16.27
2022-12-31T17:10:36.188Z,16.49
2022-12-31T17:15:42.482Z,16.52
2022-12-31T17:20:44.340Z,16.18
2022-12-31T17:25:45.916Z,16.18
2022-12-31T17:30:47.481Z,16.02
2022-12-31T17:35:54.159Z,16.00
2022-12-31T17:41:07.618Z,15.97
2022-12-31T17:46:11.498Z,16.19
2022-12-31T17:51:13.155Z,16.10
2022-12-31T17:56:18.385Z,15.97
2022-12-31T18:01:21.690Z,15.78
2022-12-31T18:06:23.471Z,15.60
2022-12-31T18:11:25.421Z,15.63
2022-12-31T18:16:27.034Z,15.67
2022-12-31T18:21:34.171Z,15.44
2022-12-31T18:26:35.790Z,15.12
2022-12-31T18:31:37.716Z,14.96
2022-12-31T18:36:39.530Z,14.90
2022-12-31T18:41:42.313Z,15.25
2022-12-31T18:46:43.943Z,15.17
2022-12-31T18:51:45.596Z,15.45
2022-12-31T18:56:49.339Z,15.06
2022-12-31T19:01:54.204Z,14.83
2022-12-31T19:06:56.513Z,14.56
2022-12-31T19:11:58.170Z,14.35
2022-12-31T19:22:03.496Z,13.98
2022-12-31T19:27:05.093Z,13.92
2022-12-31T19:32:06.795Z,13.90
2022-12-31T19:37:12.058Z,13.97
2022-12-31T19:42:15.319Z,14.23
2022-12-31T19:47:16.909Z,14.63
2022-12-31T19:52:18.510Z,15.37
2022-12-31T19:57:20.128Z,15.29
2022-12-31T20:02:25.165Z,15.58
2022-12-31T20:07:27.890Z,15.82
2022-12-31T20:12:29.649Z,16.13
2022-12-31T20:17:31.365Z,16.17
2022-12-31T20:22:33.063Z,16.32
2022-12-31T20:27:34.785Z,16.49
2022-12-31T20:32:36.353Z,16.63
2022-12-31T20:37:38.241Z,16.95
2022-12-31T20:42:40.792Z,17.15
2022-12-31T20:47:42.436Z,16.96
2022-12-31T20:52:44.303Z,16.95
2022-12-31T20:57:45.959Z,16.90
2022-12-31T21:02:56.375Z,16.72
2022-12-31T21:07:59.445Z,17.04
2022-12-31T21:13:01.014Z,16.79
2022-12-31T21:18:02.707Z,16.93
2022-12-31T21:23:04.256Z,17.07
2022-12-31T21:28:05.849Z,16.89
2022-12-31T21:33:07.798Z,16.93
2022-12-31T21:38:09.524Z,16.86
2022-12-31T21:43:12.054Z,16.94
2022-12-31T21:48:20.540Z,16.84
2022-12-31T21:53:26.176Z,17.03
2022-12-31T21:58:30.869Z,17.14
2022-12-31T22:03:32.559Z,17.21
2022-12-31T22:08:34.563Z,17.07
2022-12-31T22:13:36.948Z,16.97
2022-12-31T22:18:39.292Z,16.87
2022-12-31T22:23:41.656Z,16.98
2022-12-31T22:28:43.931Z,16.98
2022-12-31T22:33:45.540Z,16.95
2022-12-31T22:38:47.592Z,16.93
2022-12-31T22:44:02.288Z,16.88
2022-12-31T22:49:05.168Z,16.89
2022-12-31T22:54:06.681Z,16.85
2022-12-31T22:59:08.394Z,16.85
2022-12-31T23:04:09.989Z,16.88
2022-12-31T23:09:30.940Z,16.77
2022-12-31T23:14:51.251Z,16.82
2022-12-31T23:20:11.194Z,16.74
2022-12-31T23:25:12.776Z,16.73
2022-12-31T23:30:14.306Z,16.63
2022-12-31T23:35:15.970Z,16.76
2022-12-31T23:40:21.434Z,16.61
2022-12-31T23:45:26.959Z,16.56
2022-12-31T23:50:31.266Z,16.48
2022-12-31T23:55:32.786Z,16.37
